Porters Sideling, Pennsylvania
Current Conditions -  °F | °C
As of 2:53 AM on Sunday 23 Nov 2014 (Local Time) from KTHV Reporting Station
Overcast Overcast  
Wind Chill: 42°   Ceiling: 10000
Heat Index: 42°   Visibility: 10mi
Dew Point: 20°   Wind: 0mph
Humidity: 41%   Direction: NA
Pressure: 30.17"   Gusts: NA
Location:  39.83°N, 76.89°W
Report Text: KTHV 230753Z AUTO 00000KT 10SM OVC100 06/M07 A3017 RMK AO2 SLP222 T00561067
Loading
Personal Weather Stations






























Interactive Weather Map New forecast layout! Learn more

10-Day Weather Forecast

Advertisements
Track Severe Weather on mobile